Time;durP1;ratioP1;P1;durP2;ratioP2;P2;SDS_P1;SDS_P2;PMS_P1;PMS_P2;Temp;Humidity;BMP_temperature;BMP_pressure;BME280_temperature;BME280_humidity;BME280_pressure;Samples;Min_cycle;Max_cycle;Signal;HPM_P1;HPM_P2
2023/09/01 00:00:03;;;;;;;8.77;5.50;;;;;;;;;;5092690;28;20032;-69
2023/09/01 00:02:32;;;;;;;5.70;4.65;;;;;;;;;;5092603;28;20140;-68
2023/09/01 00:05:06;;;;;;;7.45;4.53;;;;;;;;;;5092563;28;20040;-69
2023/09/01 00:07:33;;;;;;;6.80;4.97;;;;;;;;;;5091299;28;20064;-70
2023/09/01 00:10:01;;;;;;;7.28;5.05;;;;;;;;;;5092570;28;20040;-69
2023/09/01 00:12:28;;;;;;;5.57;5.00;;;;;;;;;;5092394;28;20043;-70
2023/09/01 00:14:56;;;;;;;7.18;4.80;;;;;;;;;;5096319;28;20051;-69
2023/09/01 00:17:24;;;;;;;7.25;5.30;;;;;;;;;;5096668;28;20123;-69
2023/09/01 00:19:51;;;;;;;8.30;5.25;;;;;;;;;;5096557;28;20032;-69
2023/09/01 00:22:19;;;;;;;7.38;5.03;;;;;;;;;;5096506;28;20036;-69
2023/09/01 00:24:46;;;;;;;6.72;4.95;;;;;;;;;;5096446;28;20051;-69
2023/09/01 00:27:14;;;;;;;7.07;5.07;;;;;;;;;;5096419;28;20401;-70
2023/09/01 00:29:41;;;;;;;7.45;4.65;;;;;;;;;;5095097;28;20036;-69
2023/09/01 00:32:09;;;;;;;5.53;4.93;;;;;;;;;;5094973;28;20048;-70
2023/09/01 00:34:36;;;;;;;6.07;5.00;;;;;;;;;;5094973;28;20043;-70
2023/09/01 00:37:04;;;;;;;6.43;4.43;;;;;;;;;;5078331;28;20047;-70
2023/09/01 00:39:31;;;;;;;7.75;5.43;;;;;;;;;;5095190;28;20126;-68
2023/09/01 00:42:00;;;;;;;7.10;5.25;;;;;;;;;;5094883;28;20497;-69
2023/09/01 00:44:27;;;;;;;8.50;5.65;;;;;;;;;;5094918;28;20036;-69
2023/09/01 00:46:54;;;;;;;7.63;5.18;;;;;;;;;;5094629;28;20070;-69
2023/09/01 00:49:22;;;;;;;8.43;5.00;;;;;;;;;;5096020;28;20047;-69
2023/09/01 00:51:50;;;;;;;7.15;5.40;;;;;;;;;;5094680;28;20079;-69
2023/09/01 00:54:17;;;;;;;6.75;5.03;;;;;;;;;;5095947;28;20044;-69
2023/09/01 00:56:45;;;;;;;6.47;4.80;;;;;;;;;;5094544;28;20044;-68
2023/09/01 00:59:14;;;;;;;6.97;5.35;;;;;;;;;;5095842;28;20037;-69
2023/09/01 01:01:42;;;;;;;8.05;5.25;;;;;;;;;;5094330;28;20482;-69
2023/09/01 01:04:10;;;;;;;8.35;5.70;;;;;;;;;;5094426;28;20130;-70
2023/09/01 01:06:53;;;;;;;7.57;5.47;;;;;;;;;;5094345;28;20405;-69
2023/09/01 01:09:29;;;;;;;6.65;5.70;;;;;;;;;;5094320;28;20056;-70
2023/09/01 01:12:02;;;;;;;9.90;6.30;;;;;;;;;;5094474;28;20066;-70
2023/09/01 01:14:33;;;;;;;7.93;5.70;;;;;;;;;;5094135;28;20036;-69
2023/09/01 01:17:01;;;;;;;7.00;5.90;;;;;;;;;;5094179;28;20052;-70
2023/09/01 01:19:43;;;;;;;9.55;6.60;;;;;;;;;;5077396;28;20486;-69
2023/09/01 01:22:10;;;;;;;7.78;6.47;;;;;;;;;;5094074;28;20040;-70
2023/09/01 01:24:38;;;;;;;11.05;6.93;;;;;;;;;;5093643;28;20382;-69
2023/09/01 01:27:05;;;;;;;8.23;6.32;;;;;;;;;;5094094;28;20044;-69
2023/09/01 01:29:33;;;;;;;7.88;6.72;;;;;;;;;;5094015;28;20040;-69
2023/09/01 01:32:00;;;;;;;8.25;6.45;;;;;;;;;;5077140;28;20048;-70
2023/09/01 01:34:35;;;;;;;8.25;6.75;;;;;;;;;;5095134;28;20508;-69
2023/09/01 01:37:11;;;;;;;7.72;6.93;;;;;;;;;;5077052;28;20048;-69
2023/09/01 01:39:39;;;;;;;8.18;7.22;;;;;;;;;;5093853;28;20047;-70
2023/09/01 01:42:08;;;;;;;7.88;6.90;;;;;;;;;;5095015;28;20036;-70
2023/09/01 01:44:39;;;;;;;12.70;7.63;;;;;;;;;;5095036;28;20130;-70
2023/09/01 01:47:08;;;;;;;8.52;6.80;;;;;;;;;;5093669;28;20044;-70
2023/09/01 01:49:35;;;;;;;9.55;7.57;;;;;;;;;;5076914;28;20085;-70
2023/09/01 01:52:03;;;;;;;8.20;7.38;;;;;;;;;;5093564;28;20056;-70
2023/09/01 01:54:31;;;;;;;9.20;7.25;;;;;;;;;;5095073;28;20036;-70
2023/09/01 01:56:59;;;;;;;11.35;7.90;;;;;;;;;;5095042;28;20130;-70
2023/09/01 01:59:26;;;;;;;7.93;7.13;;;;;;;;;;5093428;28;20036;-70
2023/09/01 02:01:53;;;;;;;9.95;7.15;;;;;;;;;;5093357;28;20052;-70
2023/09/01 02:04:22;;;;;;;8.85;7.95;;;;;;;;;;5110385;28;20066;-70
2023/09/01 02:06:49;;;;;;;8.68;7.78;;;;;;;;;;5093095;28;20040;-70
2023/09/01 02:09:17;;;;;;;9.70;7.85;;;;;;;;;;5093143;28;20063;-70
2023/09/01 02:11:44;;;;;;;11.98;8.45;;;;;;;;;;5093247;28;20044;-70
2023/09/01 02:14:12;;;;;;;9.45;8.05;;;;;;;;;;5093012;28;20094;-70
2023/09/01 02:16:39;;;;;;;9.32;8.38;;;;;;;;;;5094374;28;20040;-70
2023/09/01 02:19:11;;;;;;;9.63;8.68;;;;;;;;;;5093051;28;20048;-70
2023/09/01 02:21:39;;;;;;;9.73;8.30;;;;;;;;;;5093044;28;20097;-70
2023/09/01 02:24:07;;;;;;;10.43;8.35;;;;;;;;;;5092704;28;20056;-70
2023/09/01 02:26:35;;;;;;;10.10;8.70;;;;;;;;;;5092823;28;20078;-70
2023/09/01 02:29:05;;;;;;;10.88;8.60;;;;;;;;;;5092827;28;20375;-70
2023/09/01 02:31:32;;;;;;;10.00;8.93;;;;;;;;;;5092778;28;20093;-70
2023/09/01 02:34:00;;;;;;;9.57;8.63;;;;;;;;;;5075987;28;20039;-70
2023/09/01 02:36:29;;;;;;;9.13;8.23;;;;;;;;;;5092098;28;20118;-70
2023/09/01 02:38:57;;;;;;;8.85;7.95;;;;;;;;;;5092607;28;20257;-70
2023/09/01 02:41:25;;;;;;;8.80;7.90;;;;;;;;;;5093893;28;20478;-70
2023/09/01 02:43:53;;;;;;;10.57;8.48;;;;;;;;;;5093710;28;20514;-70
2023/09/01 02:46:21;;;;;;;10.07;9.13;;;;;;;;;;5092496;28;20036;-70
2023/09/01 02:48:48;;;;;;;10.18;9.13;;;;;;;;;;5092490;28;20162;-69
2023/09/01 02:51:16;;;;;;;11.80;8.90;;;;;;;;;;5092420;28;20064;-70
2023/09/01 02:53:44;;;;;;;11.75;9.82;;;;;;;;;;5093680;28;20062;-69
2023/09/01 02:56:11;;;;;;;9.27;8.25;;;;;;;;;;5093632;28;20516;-70
2023/09/01 02:58:39;;;;;;;9.00;8.20;;;;;;;;;;5092223;28;20440;-70
2023/09/01 03:01:10;;;;;;;11.25;9.10;;;;;;;;;;5092282;28;20048;-70
2023/09/01 03:03:40;;;;;;;8.93;8.02;;;;;;;;;;5092039;28;20126;-69
2023/09/01 03:06:08;;;;;;;11.05;8.65;;;;;;;;;;5093599;28;20064;-70
2023/09/01 03:08:37;;;;;;;9.45;8.43;;;;;;;;;;5092141;28;20047;-69
2023/09/01 03:11:05;;;;;;;23.45;9.20;;;;;;;;;;5092160;28;20139;-69
2023/09/01 03:13:33;;;;;;;9.43;8.35;;;;;;;;;;5091887;28;20044;-69
2023/09/01 03:16:02;;;;;;;10.40;9.00;;;;;;;;;;5091691;28;20047;-69
2023/09/01 03:18:30;;;;;;;10.07;8.40;;;;;;;;;;5091906;28;20501;-69
2023/09/01 03:21:08;;;;;;;10.02;9.02;;;;;;;;;;5091887;28;20032;-69
2023/09/01 03:23:35;;;;;;;11.75;8.57;;;;;;;;;;5108608;28;20050;-69
2023/09/01 03:26:06;;;;;;;10.75;8.75;;;;;;;;;;5074759;28;20056;-69
2023/09/01 03:28:34;;;;;;;10.90;8.98;;;;;;;;;;5093132;28;20097;-69
2023/09/01 03:31:08;;;;;;;9.93;8.63;;;;;;;;;;5108725;28;20123;-69
2023/09/01 03:33:38;;;;;;;11.90;9.10;;;;;;;;;;5090557;28;20051;-69
2023/09/01 03:36:07;;;;;;;10.00;8.77;;;;;;;;;;5071343;28;20098;-69
2023/09/01 03:38:35;;;;;;;10.10;8.50;;;;;;;;;;5071423;28;20106;-69
2023/09/01 03:41:04;;;;;;;11.82;9.23;;;;;;;;;;5074894;28;20068;-69
2023/09/01 03:43:35;;;;;;;10.05;9.05;;;;;;;;;;5091420;28;20044;-69
2023/09/01 03:46:03;;;;;;;13.27;9.60;;;;;;;;;;5091456;28;20040;-69
2023/09/01 03:48:30;;;;;;;15.68;9.98;;;;;;;;;;5090504;28;20040;-69
2023/09/01 03:51:10;;;;;;;12.70;9.93;;;;;;;;;;5091409;28;20062;-69
2023/09/01 03:53:39;;;;;;;11.95;9.80;;;;;;;;;;5091344;28;20413;-69
2023/09/01 03:56:08;;;;;;;12.70;9.32;;;;;;;;;;5091203;28;20130;-70
2023/09/01 03:58:36;;;;;;;14.50;10.00;;;;;;;;;;5091342;28;20414;-69
2023/09/01 04:01:09;;;;;;;12.68;9.18;;;;;;;;;;5092674;28;20153;-69
2023/09/01 04:03:36;;;;;;;10.60;9.50;;;;;;;;;;5091090;28;20055;-70
2023/09/01 04:06:05;;;;;;;14.55;10.00;;;;;;;;;;5091415;28;20093;-69
2023/09/01 04:08:37;;;;;;;10.50;8.90;;;;;;;;;;5091302;28;20051;-69
2023/09/01 04:11:05;;;;;;;11.70;9.48;;;;;;;;;;5092593;28;20035;-69
2023/09/01 04:13:33;;;;;;;10.75;9.07;;;;;;;;;;5091304;28;20044;-69
2023/09/01 04:16:02;;;;;;;15.55;9.90;;;;;;;;;;5091032;28;20101;-69
2023/09/01 04:18:31;;;;;;;9.90;8.90;;;;;;;;;;5091072;28;20093;-69
2023/09/01 04:20:59;;;;;;;19.80;9.63;;;;;;;;;;5091122;28;20711;-70
2023/09/01 04:23:27;;;;;;;10.20;9.15;;;;;;;;;;5091103;28;20033;-70
2023/09/01 04:25:55;;;;;;;9.93;8.85;;;;;;;;;;5090849;28;20048;-70
2023/09/01 04:28:25;;;;;;;11.88;9.43;;;;;;;;;;5091085;28;20443;-70
2023/09/01 04:30:55;;;;;;;10.38;9.30;;;;;;;;;;5091079;28;20047;-70
2023/09/01 04:33:22;;;;;;;14.60;9.27;;;;;;;;;;5090991;28;20044;-70
2023/09/01 04:36:03;;;;;;;12.95;9.88;;;;;;;;;;5091067;28;20723;-70
2023/09/01 04:38:31;;;;;;;14.60;9.40;;;;;;;;;;5091073;28;20047;-70
2023/09/01 04:41:00;;;;;;;11.23;10.00;;;;;;;;;;5091009;28;20044;-69
2023/09/01 04:43:29;;;;;;;11.38;9.38;;;;;;;;;;5090925;28;20059;-70
2023/09/01 04:45:58;;;;;;;10.43;9.13;;;;;;;;;;5090906;28;20113;-70
2023/09/01 04:48:28;;;;;;;14.68;8.95;;;;;;;;;;5090982;28;20048;-70
2023/09/01 04:50:55;;;;;;;14.50;8.98;;;;;;;;;;5090860;28;20071;-71
2023/09/01 04:53:25;;;;;;;17.27;9.35;;;;;;;;;;5074744;28;20080;-71
2023/09/01 04:55:53;;;;;;;12.70;8.77;;;;;;;;;;5092178;28;20500;-69
2023/09/01 04:58:20;;;;;;;11.15;8.60;;;;;;;;;;5090878;28;20098;-69
2023/09/01 05:00:51;;;;;;;16.30;9.38;;;;;;;;;;5094222;28;20039;-69
2023/09/01 05:03:19;;;;;;;11.05;8.70;;;;;;;;;;5094446;28;20052;-70
2023/09/01 05:05:47;;;;;;;10.70;8.50;;;;;;;;;;5094565;28;20032;-69
2023/09/01 05:08:15;;;;;;;12.10;8.30;;;;;;;;;;5094505;28;20048;-70
2023/09/01 05:10:43;;;;;;;24.55;8.63;;;;;;;;;;5094458;28;20050;-69
2023/09/01 05:13:10;;;;;;;10.15;8.13;;;;;;;;;;5094393;28;20056;-70
2023/09/01 05:15:38;;;;;;;9.10;8.00;;;;;;;;;;5094346;28;20040;-68
2023/09/01 05:18:05;;;;;;;11.15;8.13;;;;;;;;;;5095743;28;20044;-70
2023/09/01 05:20:34;;;;;;;9.63;7.97;;;;;;;;;;5094004;28;20396;-68
2023/09/01 05:23:02;;;;;;;10.45;8.23;;;;;;;;;;5094022;28;20036;-69
2023/09/01 05:25:32;;;;;;;10.55;8.25;;;;;;;;;;5093956;28;20489;-69
2023/09/01 05:28:00;;;;;;;9.43;7.97;;;;;;;;;;5094271;28;20563;-71
2023/09/01 05:30:27;;;;;;;12.45;7.38;;;;;;;;;;5094115;28;20040;-70
2023/09/01 05:32:55;;;;;;;11.70;8.10;;;;;;;;;;5094144;28;20048;-71
2023/09/01 05:35:24;;;;;;;14.40;8.70;;;;;;;;;;5093868;28;20054;-70
2023/09/01 05:37:51;;;;;;;14.43;7.43;;;;;;;;;;5093259;28;20044;-70
2023/09/01 05:40:20;;;;;;;8.43;6.70;;;;;;;;;;5093399;28;20448;-70
2023/09/01 05:42:47;;;;;;;11.18;7.15;;;;;;;;;;5093293;28;20040;-69
2023/09/01 05:45:16;;;;;;;19.52;8.32;;;;;;;;;;5093256;28;20071;-69
2023/09/01 05:47:44;;;;;;;12.32;7.22;;;;;;;;;;5093606;28;20105;-77
2023/09/01 05:50:12;;;;;;;10.48;7.55;;;;;;;;;;5077020;28;20089;-69
2023/09/01 05:52:39;;;;;;;11.70;9.02;;;;;;;;;;5093706;28;20044;-69
2023/09/01 05:55:07;;;;;;;8.45;7.05;;;;;;;;;;5094677;28;20040;-69
2023/09/01 05:57:34;;;;;;;8.50;7.18;;;;;;;;;;5094816;28;20497;-73
2023/09/01 06:00:03;;;;;;;10.32;6.82;;;;;;;;;;5094777;28;20485;-69
2023/09/01 06:02:38;;;;;;;8.93;6.63;;;;;;;;;;5094826;28;20052;-68
2023/09/01 06:05:06;;;;;;;16.67;7.40;;;;;;;;;;5094389;28;20127;-68
2023/09/01 06:07:34;;;;;;;10.45;6.50;;;;;;;;;;5093566;28;20462;-68
2023/09/01 06:10:01;;;;;;;11.75;9.38;;;;;;;;;;5094491;28;20482;-69
2023/09/01 06:12:29;;;;;;;11.88;6.63;;;;;;;;;;5093699;28;20048;-68
2023/09/01 06:14:57;;;;;;;7.35;5.60;;;;;;;;;;5094582;28;20055;-69
2023/09/01 06:17:24;;;;;;;17.73;7.85;;;;;;;;;;5094462;28;20051;-69
2023/09/01 06:20:11;;;;;;;15.98;8.77;;;;;;;;;;5094356;28;20051;-69
2023/09/01 06:22:44;;;;;;;14.98;7.53;;;;;;;;;;5094170;28;20681;-69
2023/09/01 06:25:12;;;;;;;6.55;5.50;;;;;;;;;;5094138;28;20056;-69
2023/09/01 06:27:39;;;;;;;8.40;6.35;;;;;;;;;;5094268;28;20102;-68
2023/09/01 06:30:07;;;;;;;6.63;5.53;;;;;;;;;;5092831;28;20090;-70
2023/09/01 06:32:35;;;;;;;9.02;5.78;;;;;;;;;;5094000;28;20040;-69
2023/09/01 06:35:02;;;;;;;8.68;5.82;;;;;;;;;;5094045;28;20032;-70
2023/09/01 06:37:30;;;;;;;8.80;6.32;;;;;;;;;;5092702;28;20494;-68
2023/09/01 06:39:57;;;;;;;7.47;5.30;;;;;;;;;;5093894;28;20036;-70
2023/09/01 06:42:25;;;;;;;11.50;5.60;;;;;;;;;;5093482;28;20032;-68
2023/09/01 06:44:52;;;;;;;8.55;5.68;;;;;;;;;;5093788;28;20051;-69
2023/09/01 06:47:20;;;;;;;13.95;5.93;;;;;;;;;;5093615;28;20482;-73
2023/09/01 06:49:47;;;;;;;10.32;5.25;;;;;;;;;;5093713;28;20502;-70
2023/09/01 06:52:16;;;;;;;11.27;5.55;;;;;;;;;;5093624;28;20042;-69
2023/09/01 06:54:43;;;;;;;8.63;5.72;;;;;;;;;;5093547;28;20040;-69
2023/09/01 06:57:11;;;;;;;7.65;5.35;;;;;;;;;;5093616;28;20097;-73
2023/09/01 06:59:38;;;;;;;10.23;6.20;;;;;;;;;;5093603;28;20098;-71
2023/09/01 07:02:06;;;;;;;7.25;5.72;;;;;;;;;;5093516;28;20040;-70
2023/09/01 07:04:33;;;;;;;10.07;6.07;;;;;;;;;;5092293;28;20048;-68
2023/09/01 07:07:01;;;;;;;10.70;6.50;;;;;;;;;;5092182;28;20429;-68
2023/09/01 07:09:28;;;;;;;10.80;6.43;;;;;;;;;;5093342;28;20040;-69
2023/09/01 07:11:58;;;;;;;10.68;5.68;;;;;;;;;;5093150;28;20052;-68
2023/09/01 07:14:25;;;;;;;11.82;6.00;;;;;;;;;;5092166;28;20039;-72
2023/09/01 07:16:53;;;;;;;8.18;5.60;;;;;;;;;;5093305;28;20485;-69
2023/09/01 07:19:20;;;;;;;9.80;6.28;;;;;;;;;;5093596;28;20044;-70
2023/09/01 07:21:48;;;;;;;7.53;5.60;;;;;;;;;;5092028;28;20442;-71
2023/09/01 07:24:15;;;;;;;10.73;5.53;;;;;;;;;;5092937;28;20055;-69
2023/09/01 07:26:43;;;;;;;11.00;5.70;;;;;;;;;;5093419;28;20074;-69
2023/09/01 07:29:10;;;;;;;7.38;4.85;;;;;;;;;;5093412;28;20048;-70
2023/09/01 07:31:38;;;;;;;6.75;5.20;;;;;;;;;;5093268;28;20043;-69
2023/09/01 07:34:05;;;;;;;9.68;5.05;;;;;;;;;;5092927;28;20115;-71
2023/09/01 07:36:33;;;;;;;8.48;4.63;;;;;;;;;;5092879;28;20044;-71
2023/09/01 07:39:00;;;;;;;7.25;4.60;;;;;;;;;;5092890;28;20040;-70
2023/09/01 07:41:28;;;;;;;9.18;5.10;;;;;;;;;;5092820;28;20044;-67
2023/09/01 07:43:55;;;;;;;7.82;4.53;;;;;;;;;;5092741;28;20093;-72
2023/09/01 07:46:23;;;;;;;6.38;3.95;;;;;;;;;;5092642;28;20044;-66
2023/09/01 07:48:50;;;;;;;7.30;4.43;;;;;;;;;;5092533;28;20051;-67
2023/09/01 07:51:17;;;;;;;6.68;4.25;;;;;;;;;;5092691;28;20505;-68
2023/09/01 07:53:45;;;;;;;10.63;4.57;;;;;;;;;;5092570;28;20100;-68
2023/09/01 07:56:12;;;;;;;9.35;4.35;;;;;;;;;;5092597;28;20043;-68
2023/09/01 07:58:40;;;;;;;7.32;4.00;;;;;;;;;;5091784;28;20496;-68
2023/09/01 08:01:07;;;;;;;5.07;4.07;;;;;;;;;;5090754;28;20042;-68
2023/09/01 08:03:35;;;;;;;9.15;4.55;;;;;;;;;;5091956;28;20039;-70
2023/09/01 08:06:07;;;;;;;5.70;4.20;;;;;;;;;;5091742;28;20517;-68
2023/09/01 08:08:35;;;;;;;6.88;4.30;;;;;;;;;;5091869;28;20367;-68
2023/09/01 08:11:02;;;;;;;7.78;4.38;;;;;;;;;;5092468;28;20425;-69
2023/09/01 08:13:30;;;;;;;7.68;4.35;;;;;;;;;;5092467;28;20478;-69
2023/09/01 08:15:57;;;;;;;4.90;4.00;;;;;;;;;;5092135;28;20432;-70
2023/09/01 08:18:25;;;;;;;7.45;4.63;;;;;;;;;;5089645;28;20036;-70
2023/09/01 08:20:53;;;;;;;5.20;3.75;;;;;;;;;;5092042;28;20503;-69
2023/09/01 08:23:21;;;;;;;8.35;4.13;;;;;;;;;;5091916;28;20127;-69
2023/09/01 08:25:48;;;;;;;9.25;4.80;;;;;;;;;;5092130;28;20494;-68
2023/09/01 08:28:16;;;;;;;9.95;4.47;;;;;;;;;;5091931;28;20064;-68
2023/09/01 08:30:44;;;;;;;6.32;4.50;;;;;;;;;;5091982;28;20048;-68
2023/09/01 08:33:11;;;;;;;4.95;3.97;;;;;;;;;;5091109;28;20408;-69
2023/09/01 08:35:39;;;;;;;4.45;3.65;;;;;;;;;;5095576;28;20040;-67
2023/09/01 08:38:06;;;;;;;4.18;3.60;;;;;;;;;;5096192;28;20044;-68
2023/09/01 08:40:34;;;;;;;6.50;4.63;;;;;;;;;;5095027;28;20111;-68
2023/09/01 08:43:03;;;;;;;6.93;4.60;;;;;;;;;;5095296;28;20105;-69
2023/09/01 08:45:32;;;;;;;7.53;4.07;;;;;;;;;;5095195;28;20064;-67
2023/09/01 08:48:03;;;;;;;7.95;4.65;;;;;;;;;;5094985;28;20036;-68
2023/09/01 08:50:31;;;;;;;5.70;4.15;;;;;;;;;;5095924;28;20047;-68
2023/09/01 08:53:02;;;;;;;8.75;4.38;;;;;;;;;;5095805;28;20447;-69
2023/09/01 08:55:29;;;;;;;6.60;4.28;;;;;;;;;;5093922;28;20111;-69
2023/09/01 08:57:57;;;;;;;7.18;3.70;;;;;;;;;;5082877;28;20406;-70
2023/09/01 09:00:24;;;;;;;10.50;3.92;;;;;;;;;;5075350;28;20045;-70
2023/09/01 09:02:52;;;;;;;5.38;3.97;;;;;;;;;;5074780;28;20048;-71
2023/09/01 09:05:34;;;;;;;7.65;4.10;;;;;;;;;;5075228;28;20072;-69
2023/09/01 09:08:04;;;;;;;5.03;3.65;;;;;;;;;;5075447;28;20047;-69
2023/09/01 09:10:52;;;;;;;7.72;4.45;;;;;;;;;;5074914;28;20052;-70
2023/09/01 09:13:23;;;;;;;4.90;3.95;;;;;;;;;;5075170;28;20068;-70
2023/09/01 09:16:06;;;;;;;6.53;3.90;;;;;;;;;;5074047;28;20132;-69
2023/09/01 09:18:34;;;;;;;9.27;4.78;;;;;;;;;;5075286;28;20047;-67
2023/09/01 09:21:02;;;;;;;14.25;4.47;;;;;;;;;;5075291;28;20055;-69
2023/09/01 09:23:43;;;;;;;6.10;3.60;;;;;;;;;;5074771;28;20033;-81
2023/09/01 09:26:11;;;;;;;9.95;4.25;;;;;;;;;;5074772;28;20056;-69
2023/09/01 09:28:38;;;;;;;5.68;4.05;;;;;;;;;;5074855;28;20098;-69
2023/09/01 09:31:06;;;;;;;6.20;3.50;;;;;;;;;;5087910;28;20462;-70
2023/09/01 09:33:34;;;;;;;4.93;3.53;;;;;;;;;;5095199;28;20051;-68
2023/09/01 09:36:03;;;;;;;6.45;4.40;;;;;;;;;;5095446;28;20048;-68
2023/09/01 09:38:41;;;;;;;5.15;4.05;;;;;;;;;;5094291;28;20485;-68
2023/09/01 09:41:09;;;;;;;9.73;4.28;;;;;;;;;;5095085;28;20043;-69
2023/09/01 09:43:43;;;;;;;13.35;4.68;;;;;;;;;;5095085;28;20036;-70
2023/09/01 09:46:10;;;;;;;5.70;3.63;;;;;;;;;;5094982;28;20043;-69
2023/09/01 09:48:39;;;;;;;8.23;4.28;;;;;;;;;;5095068;28;20069;-69
2023/09/01 09:51:11;;;;;;;11.18;4.25;;;;;;;;;;5094753;28;20040;-68
2023/09/01 09:53:39;;;;;;;7.28;3.80;;;;;;;;;;5094860;28;20077;-68
2023/09/01 09:56:15;;;;;;;5.45;3.65;;;;;;;;;;5094820;28;20098;-69
2023/09/01 09:58:45;;;;;;;17.95;5.03;;;;;;;;;;5094878;28;20040;-68
2023/09/01 10:01:23;;;;;;;8.43;3.80;;;;;;;;;;5094406;28;20044;-69
2023/09/01 10:03:51;;;;;;;6.93;3.78;;;;;;;;;;5094329;28;20123;-68
2023/09/01 10:06:19;;;;;;;22.70;4.85;;;;;;;;;;5094600;28;20044;-68
2023/09/01 10:08:48;;;;;;;15.98;4.10;;;;;;;;;;5094318;28;20036;-68
2023/09/01 10:11:17;;;;;;;5.68;3.22;;;;;;;;;;5094278;28;20044;-69
2023/09/01 10:13:45;;;;;;;5.95;3.40;;;;;;;;;;5094319;28;20457;-69
2023/09/01 10:16:14;;;;;;;8.07;3.53;;;;;;;;;;5094643;28;20047;-69
2023/09/01 10:18:45;;;;;;;10.18;4.00;;;;;;;;;;5094268;28;20070;-69
2023/09/01 10:21:13;;;;;;;8.52;3.75;;;;;;;;;;5094234;28;20032;-70
2023/09/01 10:23:41;;;;;;;14.20;4.15;;;;;;;;;;5094084;28;20489;-68
2023/09/01 10:26:28;;;;;;;4.43;3.20;;;;;;;;;;5093723;28;20394;-68
2023/09/01 10:28:56;;;;;;;6.75;3.63;;;;;;;;;;5093836;28;20036;-68
2023/09/01 10:31:24;;;;;;;9.35;3.50;;;;;;;;;;5094020;28;20032;-68
2023/09/01 10:34:10;;;;;;;10.27;3.13;;;;;;;;;;5094118;28;20386;-70
2023/09/01 10:36:38;;;;;;;4.43;3.30;;;;;;;;;;5092652;28;20040;-69
2023/09/01 10:39:24;;;;;;;6.78;3.70;;;;;;;;;;5093818;28;20051;-70
2023/09/01 10:42:00;;;;;;;19.75;4.35;;;;;;;;;;5093898;28;20074;-68
2023/09/01 10:44:39;;;;;;;6.78;3.10;;;;;;;;;;5093806;28;20486;-68
2023/09/01 10:47:27;;;;;;;5.85;3.45;;;;;;;;;;5093778;28;20043;-68
2023/09/01 10:49:55;;;;;;;7.47;3.00;;;;;;;;;;5093471;28;20048;-69
2023/09/01 10:52:23;;;;;;;6.50;3.15;;;;;;;;;;5093693;28;20097;-69
2023/09/01 10:55:00;;;;;;;8.52;3.22;;;;;;;;;;5092428;28;20066;-69
2023/09/01 10:57:43;;;;;;;5.45;2.70;;;;;;;;;;5091588;28;20568;-68
2023/09/01 11:00:30;;;;;;;9.82;3.05;;;;;;;;;;5093309;28;20040;-69
2023/09/01 11:03:16;;;;;;;7.85;3.45;;;;;;;;;;5093421;28;20135;-69
2023/09/01 11:05:44;;;;;;;5.22;3.40;;;;;;;;;;5093659;28;20047;-69
2023/09/01 11:08:17;;;;;;;5.20;3.65;;;;;;;;;;5093033;28;20055;-69
2023/09/01 11:10:45;;;;;;;4.18;3.35;;;;;;;;;;5092817;28;20063;-69
2023/09/01 11:13:13;;;;;;;6.97;2.85;;;;;;;;;;5092959;28;20032;-69
2023/09/01 11:15:47;;;;;;;7.05;3.15;;;;;;;;;;5092662;28;20111;-69
2023/09/01 11:18:15;;;;;;;11.15;3.40;;;;;;;;;;5089411;28;20036;-69
2023/09/01 11:20:44;;;;;;;6.75;4.03;;;;;;;;;;5093013;28;20044;-69
2023/09/01 11:23:11;;;;;;;8.63;4.13;;;;;;;;;;5093192;28;20434;-69
2023/09/01 11:25:40;;;;;;;8.05;3.70;;;;;;;;;;5092967;28;20555;-69
2023/09/01 11:28:12;;;;;;;9.43;2.72;;;;;;;;;;5089626;28;20071;-70
2023/09/01 11:30:51;;;;;;;7.85;2.80;;;;;;;;;;5071612;28;20044;-69
2023/09/01 11:33:20;;;;;;;10.05;3.00;;;;;;;;;;5071875;28;20426;-70
2023/09/01 11:35:49;;;;;;;6.53;2.88;;;;;;;;;;5071690;28;20059;-70
2023/09/01 11:38:19;;;;;;;7.88;2.80;;;;;;;;;;5071548;28;20090;-70
2023/09/01 11:40:49;;;;;;;14.40;3.03;;;;;;;;;;5072043;28;20437;-69
2023/09/01 11:43:17;;;;;;;4.93;2.67;;;;;;;;;;5070866;28;20043;-70
2023/09/01 11:45:48;;;;;;;11.80;3.00;;;;;;;;;;5072413;28;20064;-71
2023/09/01 11:48:23;;;;;;;6.35;2.70;;;;;;;;;;5072736;28;20063;-70
2023/09/01 11:50:54;;;;;;;3.30;2.38;;;;;;;;;;5085087;28;20047;-69
2023/09/01 11:53:22;;;;;;;3.65;2.60;;;;;;;;;;5092547;28;20036;-70
2023/09/01 11:55:50;;;;;;;4.00;2.47;;;;;;;;;;5092363;28;20048;-69
2023/09/01 11:58:18;;;;;;;4.45;2.75;;;;;;;;;;5092176;28;20036;-70
2023/09/01 12:00:46;;;;;;;6.65;2.70;;;;;;;;;;5092685;28;20040;-70
2023/09/01 12:03:13;;;;;;;9.02;3.08;;;;;;;;;;5092539;28;20289;-70
2023/09/01 12:05:41;;;;;;;3.25;2.33;;;;;;;;;;5092386;28;20048;-69
2023/09/01 12:08:09;;;;;;;4.03;2.70;;;;;;;;;;5092505;28;20032;-70
2023/09/01 12:10:37;;;;;;;4.15;2.45;;;;;;;;;;5095900;28;20128;-69
2023/09/01 12:13:12;;;;;;;5.38;2.20;;;;;;;;;;5096621;28;20410;-69
2023/09/01 12:15:56;;;;;;;16.75;2.80;;;;;;;;;;5096707;28;20132;-69
2023/09/01 12:18:38;;;;;;;11.73;2.72;;;;;;;;;;5096790;28;20038;-69
2023/09/01 12:21:10;;;;;;;8.32;3.60;;;;;;;;;;5096498;28;20109;-69
2023/09/01 12:23:39;;;;;;;4.15;2.30;;;;;;;;;;5096496;28;20478;-68
2023/09/01 12:26:06;;;;;;;9.45;2.88;;;;;;;;;;5096307;28;20063;-69
2023/09/01 12:28:37;;;;;;;10.27;2.70;;;;;;;;;;5096788;28;20036;-69
2023/09/01 12:31:06;;;;;;;25.70;4.75;;;;;;;;;;5096277;28;20044;-69
2023/09/01 12:33:34;;;;;;;17.30;3.60;;;;;;;;;;5096300;28;20097;-68
2023/09/01 12:36:02;;;;;;;11.40;3.35;;;;;;;;;;5096046;28;20063;-69
2023/09/01 12:38:30;;;;;;;6.95;3.00;;;;;;;;;;5096157;28;20109;-69
2023/09/01 12:40:57;;;;;;;18.48;3.17;;;;;;;;;;5096146;28;20393;-68
2023/09/01 12:43:25;;;;;;;6.78;2.53;;;;;;;;;;5094997;28;20044;-68
2023/09/01 12:45:53;;;;;;;7.47;2.42;;;;;;;;;;5096072;28;20075;-69
2023/09/01 12:48:20;;;;;;;9.05;3.53;;;;;;;;;;5096212;28;20036;-69
2023/09/01 12:50:49;;;;;;;4.70;2.53;;;;;;;;;;5095999;28;20059;-68
2023/09/01 12:53:16;;;;;;;9.90;2.70;;;;;;;;;;5096229;28;20105;-70
2023/09/01 12:55:46;;;;;;;6.03;2.60;;;;;;;;;;5095900;28;20067;-69
2023/09/01 12:58:14;;;;;;;5.65;2.50;;;;;;;;;;5095606;28;20048;-68
2023/09/01 13:00:41;;;;;;;3.92;2.70;;;;;;;;;;5095834;28;20039;-69
2023/09/01 13:03:09;;;;;;;6.40;2.40;;;;;;;;;;5095099;28;20043;-69
2023/09/01 13:05:36;;;;;;;8.52;2.75;;;;;;;;;;5095241;28;20126;-68
2023/09/01 13:08:04;;;;;;;5.35;2.03;;;;;;;;;;5094872;28;20087;-68
2023/09/01 13:10:32;;;;;;;10.02;3.22;;;;;;;;;;5095731;28;20040;-69
2023/09/01 13:12:59;;;;;;;8.65;2.67;;;;;;;;;;5095644;28;20039;-69
2023/09/01 13:15:27;;;;;;;7.88;2.80;;;;;;;;;;5095565;28;20048;-68
2023/09/01 13:17:54;;;;;;;7.60;3.17;;;;;;;;;;5094563;28;20050;-69
2023/09/01 13:20:22;;;;;;;13.55;2.67;;;;;;;;;;5095023;28;20049;-69
2023/09/01 13:22:50;;;;;;;5.78;3.22;;;;;;;;;;5095131;28;20608;-70
2023/09/01 13:25:17;;;;;;;16.23;3.42;;;;;;;;;;5093932;28;20047;-69
2023/09/01 13:27:45;;;;;;;5.25;2.53;;;;;;;;;;5095163;28;20039;-68
2023/09/01 13:30:12;;;;;;;21.50;3.85;;;;;;;;;;5095346;28;20044;-69
2023/09/01 13:32:40;;;;;;;4.97;3.42;;;;;;;;;;5095141;28;20036;-72
2023/09/01 13:35:07;;;;;;;7.38;2.63;;;;;;;;;;5095051;28;20044;-70
2023/09/01 13:37:35;;;;;;;8.93;2.50;;;;;;;;;;5095283;28;20044;-71
2023/09/01 13:40:03;;;;;;;6.68;2.30;;;;;;;;;;5095099;28;20047;-71
2023/09/01 13:42:30;;;;;;;5.50;2.40;;;;;;;;;;5094999;28;20114;-69
2023/09/01 13:44:58;;;;;;;5.35;1.90;;;;;;;;;;5094747;28;20068;-68
2023/09/01 13:47:26;;;;;;;5.20;2.30;;;;;;;;;;5094739;28;20040;-69
2023/09/01 13:49:54;;;;;;;10.65;2.50;;;;;;;;;;5094963;28;20046;-68
2023/09/01 13:52:24;;;;;;;10.02;2.40;;;;;;;;;;5094906;28;20070;-68
2023/09/01 13:54:52;;;;;;;6.35;4.32;;;;;;;;;;5094842;28;20036;-70
2023/09/01 13:57:20;;;;;;;14.93;3.08;;;;;;;;;;5094895;28;20051;-70
2023/09/01 13:59:48;;;;;;;23.70;3.70;;;;;;;;;;5088201;28;20051;-69
2023/09/01 14:02:16;;;;;;;5.20;2.50;;;;;;;;;;5086447;28;20043;-68
2023/09/01 14:04:44;;;;;;;11.48;2.80;;;;;;;;;;5087188;28;20584;-69
2023/09/01 14:07:17;;;;;;;6.30;3.85;;;;;;;;;;5088922;28;20059;-69
2023/09/01 14:09:44;;;;;;;7.00;2.63;;;;;;;;;;5075042;28;20044;-69
2023/09/01 14:12:12;;;;;;;8.55;2.70;;;;;;;;;;5088484;28;20131;-69
2023/09/01 14:14:39;;;;;;;4.38;2.40;;;;;;;;;;5088692;28;20405;-69
2023/09/01 14:17:07;;;;;;;6.35;2.13;;;;;;;;;;5077782;28;20041;-69
2023/09/01 14:19:34;;;;;;;6.38;2.70;;;;;;;;;;5084483;28;20500;-68
2023/09/01 14:22:02;;;;;;;5.80;3.05;;;;;;;;;;5088565;28;20043;-68
2023/09/01 14:24:30;;;;;;;10.68;2.92;;;;;;;;;;5087784;28;20055;-68
2023/09/01 14:26:57;;;;;;;2.35;2.15;;;;;;;;;;5088983;28;20366;-68
2023/09/01 14:29:25;;;;;;;4.85;2.50;;;;;;;;;;5088660;28;20050;-66
2023/09/01 14:31:53;;;;;;;4.70;2.28;;;;;;;;;;5087988;28;20397;-68
2023/09/01 14:34:21;;;;;;;4.68;2.97;;;;;;;;;;5076132;28;20064;-68
2023/09/01 14:36:48;;;;;;;7.75;3.72;;;;;;;;;;5086623;28;20047;-70
2023/09/01 14:39:16;;;;;;;5.80;2.72;;;;;;;;;;5088446;28;20050;-69
2023/09/01 14:41:43;;;;;;;5.47;2.60;;;;;;;;;;5088469;28;20375;-70
2023/09/01 14:44:14;;;;;;;4.53;2.72;;;;;;;;;;5088417;28;20052;-69
2023/09/01 14:46:42;;;;;;;4.40;2.20;;;;;;;;;;5088240;28;20048;-69
2023/09/01 14:49:09;;;;;;;3.30;2.40;;;;;;;;;;5087906;28;20733;-69